Time;durP1;ratioP1;P1;durP2;ratioP2;P2;SDS_P1;SDS_P2;PMS_P1;PMS_P2;Temp;Humidity;BMP_temperature;BMP_pressure;BME280_temperature;BME280_humidity;BME280_pressure;Samples;Min_cycle;Max_cycle;Signal;HPM_P1;HPM_P2
2022/01/22 00:02:00;;;;;;;4.03;1.80;;;21.00;43.20;;;;;;5084737;28;43677;-62
2022/01/22 00:04:27;;;;;;;4.28;2.00;;;21.00;43.20;;;;;;5084168;28;44648;-63
2022/01/22 00:06:55;;;;;;;3.47;1.80;;;21.00;43.40;;;;;;5083320;28;43525;-63
2022/01/22 00:09:50;;;;;;;3.83;1.90;;;21.00;43.30;;;;;;5081886;28;43743;-62
2022/01/22 00:15:07;;;;;;;3.97;2.00;;;21.00;43.30;;;;;;5079719;28;43783;-62
2022/01/22 00:17:34;;;;;;;3.80;1.70;;;21.00;43.40;;;;;;5082543;28;43516;-62
2022/01/22 00:20:03;;;;;;;4.15;1.73;;;21.00;43.40;;;;;;5085154;27;44139;-62
2022/01/22 00:22:32;;;;;;;4.00;2.05;;;21.00;43.40;;;;;;5084510;28;43483;-62
2022/01/22 00:25:01;;;;;;;3.47;1.73;;;20.90;43.40;;;;;;5084115;28;44987;-62
2022/01/22 00:27:29;;;;;;;3.42;2.00;;;20.90;43.40;;;;;;5084090;28;43523;-62
2022/01/22 00:29:56;;;;;;;2.35;1.60;;;20.90;43.40;;;;;;5084196;28;43470;-63
2022/01/22 00:32:24;;;;;;;2.83;1.60;;;20.90;43.40;;;;;;5067511;28;43501;-63
2022/01/22 00:34:51;;;;;;;3.13;1.73;;;20.90;43.40;;;;;;5082934;28;44749;-63
2022/01/22 00:37:19;;;;;;;3.95;1.80;;;20.90;43.40;;;;;;5083156;28;43715;-62
2022/01/22 00:39:46;;;;;;;3.83;1.90;;;20.80;43.40;;;;;;5069847;28;43498;-63
2022/01/22 00:42:15;;;;;;;3.42;1.90;;;20.80;43.50;;;;;;5082945;28;43565;-62
2022/01/22 00:44:44;;;;;;;3.88;2.08;;;20.90;43.50;;;;;;5082553;28;44033;-62
2022/01/22 00:47:11;;;;;;;3.63;2.17;;;20.90;43.50;;;;;;5081250;28;43981;-63
2022/01/22 00:49:40;;;;;;;3.42;1.88;;;20.90;43.50;;;;;;5063757;28;43469;-62
2022/01/22 00:52:08;;;;;;;3.92;1.75;;;20.90;43.50;;;;;;5082255;28;43494;-62
2022/01/22 00:54:35;;;;;;;2.65;1.58;;;20.80;43.50;;;;;;5081007;28;44756;-61
2022/01/22 00:57:04;;;;;;;4.05;1.80;;;20.80;43.50;;;;;;5081318;28;43476;-62
2022/01/22 00:59:31;;;;;;;3.80;1.80;;;20.80;43.50;;;;;;5082594;28;43490;-63
2022/01/22 01:01:59;;;;;;;3.05;1.63;;;20.80;43.50;;;;;;5068633;28;43655;-63
2022/01/22 01:04:28;;;;;;;3.22;1.85;;;20.80;43.50;;;;;;5052978;28;44213;-62
2022/01/22 01:06:56;;;;;;;3.35;1.85;;;20.80;43.50;;;;;;5069932;28;44343;-62
2022/01/22 01:09:24;;;;;;;3.28;1.50;;;20.80;43.50;;;;;;5063446;28;43456;-63
2022/01/22 01:11:56;;;;;;;2.45;1.50;;;20.80;43.50;;;;;;5081655;28;43478;-62
2022/01/22 01:14:31;;;;;;;3.83;1.70;;;20.80;43.50;;;;;;5059416;28;44688;-63
2022/01/22 01:36:05;;;;;;;3.75;1.75;;;20.70;43.70;;;;;;5064928;28;44084;-62
2022/01/22 01:38:40;;;;;;;3.35;1.50;;;20.60;43.60;;;;;;5064797;28;43576;-62
2022/01/22 01:41:18;;;;;;;3.15;1.40;;;20.60;43.70;;;;;;5065518;28;43454;-63
2022/01/22 01:43:45;;;;;;;3.10;1.40;;;20.60;43.70;;;;;;5081300;28;43450;-63
2022/01/22 01:46:44;;;;;;;2.03;1.33;;;20.60;43.70;;;;;;5051216;28;43811;-62
2022/01/22 01:49:12;;;;;;;2.35;1.35;;;20.60;43.70;;;;;;5066125;28;44030;-62
2022/01/22 01:51:41;;;;;;;2.38;1.60;;;20.60;43.70;;;;;;5083133;28;43500;-63
2022/01/22 01:59:43;;;;;;;2.58;1.52;;;20.60;43.70;;;;;;5082546;28;43973;-62
2022/01/22 02:02:14;;;;;;;2.55;1.50;;;20.60;43.70;;;;;;5082049;28;43430;-62
2022/01/22 02:04:42;;;;;;;2.03;1.25;;;20.60;43.70;;;;;;5047990;28;43636;-62
2022/01/22 02:07:10;;;;;;;3.08;1.48;;;20.60;43.70;;;;;;5062869;28;44030;-62
2022/01/22 02:09:44;;;;;;;2.28;1.40;;;20.50;43.70;;;;;;5062526;28;43555;-63
2022/01/22 02:12:19;;;;;;;2.22;1.58;;;20.50;43.70;;;;;;5065855;28;43524;-62
2022/01/22 02:23:47;;;;;;;2.30;1.38;;;20.50;43.80;;;;;;5064886;28;43561;-62
2022/01/22 02:26:17;;;;;;;2.28;1.20;;;20.50;44.50;;;;;;5065201;28;43633;-63
2022/01/22 02:28:50;;;;;;;3.28;1.40;;;20.50;43.90;;;;;;5065853;28;44732;-63
2022/01/22 02:31:51;;;;;;;1.88;1.40;;;20.50;43.80;;;;;;5065984;28;43790;-62
2022/01/22 02:34:36;;;;;;;1.63;1.17;;;20.50;43.90;;;;;;5081442;28;44070;-62
2022/01/22 02:37:11;;;;;;;3.30;1.40;;;20.50;43.90;;;;;;5067068;28;43609;-62
2022/01/22 02:39:58;;;;;;;2.30;1.20;;;20.40;43.80;;;;;;5063916;28;44960;-62
2022/01/22 02:42:30;;;;;;;2.38;1.20;;;20.40;43.80;;;;;;5063138;28;44018;-62
2022/01/22 02:45:00;;;;;;;2.50;1.30;;;20.40;43.80;;;;;;5063706;28;43496;-62
2022/01/22 02:47:27;;;;;;;2.20;1.25;;;20.40;43.90;;;;;;5065086;28;43603;-62
2022/01/22 02:49:54;;;;;;;2.25;1.30;;;20.40;43.90;;;;;;5066512;28;44920;-62
2022/01/22 02:52:23;;;;;;;3.17;1.58;;;20.40;43.90;;;;;;5065634;28;43955;-62
2022/01/22 02:54:51;;;;;;;1.83;1.20;;;20.40;43.90;;;;;;5063762;28;43590;-62
2022/01/22 02:57:18;;;;;;;3.25;1.33;;;20.40;43.90;;;;;;5080037;28;43451;-62
2022/01/22 02:59:52;;;;;;;1.27;0.93;;;20.40;43.90;;;;;;5062684;28;43918;-63
2022/01/22 03:02:19;;;;;;;2.33;1.45;;;20.40;43.90;;;;;;5067668;28;43631;-62
2022/01/22 03:04:47;;;;;;;3.40;1.38;;;20.40;43.90;;;;;;5063097;28;43490;-63
2022/01/22 03:07:15;;;;;;;1.65;1.10;;;20.30;43.90;;;;;;5062556;28;43534;-62
2022/01/22 03:09:45;;;;;;;2.80;1.35;;;20.30;43.90;;;;;;5063181;28;43783;-62
2022/01/22 03:29:46;;;;;;;1.90;1.10;;;20.30;43.90;;;;;;5067242;28;43527;-62
2022/01/22 03:31:42;;;;;;;1.27;0.93;;;20.30;44.00;;;;;;5067728;28;43853;-62
2022/01/22 03:34:11;;;;;;;2.42;1.40;;;20.20;44.00;;;;;;5063636;28;43789;-62
2022/01/22 03:36:39;;;;;;;2.17;1.27;;;20.20;44.00;;;;;;5084017;28;43555;-63
2022/01/22 03:39:09;;;;;;;2.55;1.30;;;20.20;44.00;;;;;;5064551;28;43460;-62
2022/01/22 03:41:39;;;;;;;2.03;1.05;;;20.20;44.00;;;;;;5066712;28;43734;-62
2022/01/22 03:44:08;;;;;;;1.80;1.15;;;20.20;44.00;;;;;;5082983;28;43472;-63
2022/01/22 03:46:38;;;;;;;2.08;1.17;;;20.20;44.00;;;;;;5069612;28;43408;-63
2022/01/22 03:49:05;;;;;;;1.77;1.15;;;20.20;44.00;;;;;;5065299;28;43592;-63
2022/01/22 03:51:33;;;;;;;1.42;0.98;;;20.20;44.10;;;;;;5066628;28;44719;-63
2022/01/22 03:54:01;;;;;;;1.65;1.00;;;20.20;44.00;;;;;;5063941;28;43486;-62
2022/01/22 03:56:29;;;;;;;1.23;1.00;;;20.20;44.00;;;;;;5067997;28;43528;-62
2022/01/22 03:59:11;;;;;;;1.60;0.90;;;20.20;44.00;;;;;;5067857;28;43495;-62
2022/01/22 04:04:54;;;;;;;1.40;1.08;;;20.20;44.10;;;;;;5064971;28;43474;-62
2022/01/22 04:10:09;;;;;;;1.10;0.90;;;20.20;44.10;;;;;;5081885;28;43464;-62
2022/01/22 04:12:57;;;;;;;2.78;1.27;;;20.20;44.00;;;;;;5068751;27;43823;-62
2022/01/22 04:15:27;;;;;;;1.63;1.00;;;20.10;44.00;;;;;;5081070;27;43517;-62
2022/01/22 04:28:42;;;;;;;2.13;1.05;;;20.10;44.10;;;;;;5068900;28;43484;-62
2022/01/22 04:31:10;;;;;;;1.25;0.95;;;20.10;44.10;;;;;;5083612;28;43475;-63
2022/01/22 04:33:38;;;;;;;2.00;1.20;;;20.10;44.10;;;;;;5083753;28;44662;-62
2022/01/22 04:36:07;;;;;;;1.90;1.10;;;20.10;44.10;;;;;;5083807;28;43469;-63
2022/01/22 04:38:34;;;;;;;2.75;1.23;;;20.10;44.10;;;;;;5063843;28;44013;-63
2022/01/22 04:41:02;;;;;;;1.75;1.00;;;20.10;44.10;;;;;;5083867;28;43496;-63
2022/01/22 04:43:31;;;;;;;2.22;1.10;;;20.10;44.10;;;;;;5083694;28;43807;-62
2022/01/22 04:49:12;;;;;;;1.95;1.15;;;20.10;44.10;;;;;;5025251;28;43610;-63
2022/01/22 04:57:13;;;;;;;1.42;0.90;;;20.00;44.10;;;;;;5083427;27;43954;-62
2022/01/22 04:59:41;;;;;;;1.83;1.00;;;20.00;44.10;;;;;;5065466;28;43544;-62
2022/01/22 05:02:08;;;;;;;1.80;1.15;;;20.00;44.10;;;;;;5065817;28;43729;-63
2022/01/22 05:04:42;;;;;;;1.20;1.02;;;20.00;44.20;;;;;;5081069;28;43747;-63
2022/01/22 05:07:17;;;;;;;1.88;0.90;;;20.00;44.10;;;;;;5064018;28;43929;-63
2022/01/22 05:10:09;;;;;;;1.52;0.90;;;20.00;44.10;;;;;;5083425;28;43508;-63
2022/01/22 05:12:37;;;;;;;2.13;1.40;;;20.00;44.10;;;;;;5066663;28;43629;-63
2022/01/22 05:15:07;;;;;;;2.08;1.00;;;19.90;44.10;;;;;;5067168;28;44017;-62
2022/01/22 05:17:37;;;;;;;2.22;1.08;;;20.00;44.20;;;;;;5061753;28;43582;-63
2022/01/22 05:22:53;;;;;;;1.30;0.90;;;19.90;44.20;;;;;;5065142;28;43718;-63
2022/01/22 05:26:22;;;;;;;2.05;0.95;;;19.90;44.10;;;;;;5063979;28;43958;-63
2022/01/22 05:39:28;;;;;;;1.83;0.88;;;19.90;44.30;;;;;;5060814;28;43472;-63
2022/01/22 05:41:58;;;;;;;2.05;0.98;;;19.90;44.30;;;;;;5064383;28;43491;-63
2022/01/22 05:44:26;;;;;;;1.58;1.00;;;19.90;44.30;;;;;;5082906;28;43512;-62
2022/01/22 05:46:57;;;;;;;1.17;0.80;;;19.90;44.30;;;;;;5065470;28;45057;-62
2022/01/22 05:49:27;;;;;;;1.60;0.95;;;19.90;44.30;;;;;;5082663;27;43543;-63
2022/01/22 05:51:57;;;;;;;1.63;0.90;;;19.90;44.30;;;;;;5082452;28;43399;-63
2022/01/22 05:59:57;;;;;;;1.52;0.93;;;19.90;44.30;;;;;;5064737;28;43976;-62
2022/01/22 06:02:24;;;;;;;1.25;0.88;;;19.90;44.30;;;;;;5064750;28;43486;-63
2022/01/22 06:04:58;;;;;;;1.42;0.90;;;19.90;44.30;;;;;;5064862;28;43576;-63
2022/01/22 06:07:27;;;;;;;1.00;0.88;;;19.90;44.30;;;;;;5062074;28;45167;-63
2022/01/22 06:15:01;;;;;;;1.52;0.90;;;19.90;44.30;;;;;;5066553;28;44066;-62
2022/01/22 06:17:31;;;;;;;2.15;0.95;;;19.90;44.30;;;;;;5063300;28;44649;-62
2022/01/22 06:20:06;;;;;;;2.60;0.90;;;19.90;44.30;;;;;;5061705;28;43593;-62
2022/01/22 06:22:34;;;;;;;2.80;1.00;;;19.90;44.40;;;;;;5068104;28;43614;-62
2022/01/22 06:25:02;;;;;;;2.30;0.82;;;19.90;44.30;;;;;;5082512;28;43563;-63
2022/01/22 06:27:30;;;;;;;1.38;0.80;;;19.90;44.30;;;;;;5064782;28;44990;-62
2022/01/22 06:29:58;;;;;;;3.08;1.20;;;19.90;44.40;;;;;;5063120;28;43496;-62
2022/01/22 06:32:26;;;;;;;1.48;0.90;;;19.90;44.40;;;;;;5064637;28;43417;-63
2022/01/22 06:34:54;;;;;;;3.00;1.02;;;19.90;44.30;;;;;;5064058;28;44296;-63
2022/01/22 06:37:22;;;;;;;1.55;1.00;;;20.00;44.40;;;;;;5047091;28;43908;-63
2022/01/22 06:43:12;;;;;;;1.35;0.73;;;20.00;44.40;;;;;;5080137;28;43584;-63
2022/01/22 06:46:09;;;;;;;1.55;0.90;;;20.00;44.40;;;;;;5063215;28;43551;-63
2022/01/22 06:48:47;;;;;;;1.42;0.90;;;20.00;44.40;;;;;;5064854;28;44997;-63
2022/01/22 06:51:26;;;;;;;1.35;0.88;;;20.00;44.40;;;;;;5062684;28;43764;-63
2022/01/22 06:53:54;;;;;;;2.20;0.90;;;20.00;44.30;;;;;;5062057;28;43499;-62
2022/01/22 06:56:24;;;;;;;1.85;0.70;;;20.10;44.40;;;;;;5063939;28;43529;-63
2022/01/22 06:59:21;;;;;;;2.88;1.13;;;20.10;44.40;;;;;;5062282;28;45136;-63
2022/01/22 07:01:53;;;;;;;0.90;0.57;;;20.10;44.40;;;;;;5063137;28;43990;-63
2022/01/22 07:04:23;;;;;;;1.58;0.80;;;20.10;44.40;;;;;;5061470;28;43515;-63
2022/01/22 07:06:58;;;;;;;0.90;0.70;;;20.10;44.40;;;;;;5063404;28;44148;-63
2022/01/22 07:09:27;;;;;;;1.58;0.98;;;20.10;44.30;;;;;;5063906;28;45114;-63
2022/01/22 07:11:56;;;;;;;1.45;0.90;;;20.20;44.20;;;;;;5066458;28;43509;-63
2022/01/22 07:14:25;;;;;;;2.40;0.75;;;20.10;44.20;;;;;;5065059;28;43607;-62
2022/01/22 07:16:53;;;;;;;1.05;0.82;;;20.20;44.20;;;;;;5060946;28;43424;-63
2022/01/22 07:19:46;;;;;;;1.60;0.88;;;20.20;44.20;;;;;;5072291;28;44044;-63
2022/01/22 07:22:33;;;;;;;1.25;0.77;;;20.20;44.20;;;;;;5061709;28;43518;-62
2022/01/22 07:25:24;;;;;;;0.80;0.70;;;20.20;44.30;;;;;;5072494;28;43621;-63
2022/01/22 07:27:54;;;;;;;2.33;0.85;;;20.20;44.90;;;;;;5063755;28;43458;-63
2022/01/22 07:30:22;;;;;;;1.08;0.65;;;20.20;44.20;;;;;;5062106;28;45030;-63
2022/01/22 07:32:50;;;;;;;1.27;0.60;;;20.30;44.20;;;;;;5064781;28;43510;-63
2022/01/22 07:35:17;;;;;;;0.80;0.70;;;20.30;44.20;;;;;;5062670;28;43444;-63
2022/01/22 07:37:50;;;;;;;1.10;0.70;;;20.30;44.30;;;;;;5062336;28;44216;-63
2022/01/22 07:40:21;;;;;;;2.05;0.60;;;20.30;44.30;;;;;;5061336;28;43854;-63
2022/01/22 07:42:54;;;;;;;0.85;0.57;;;20.30;44.30;;;;;;5063369;28;43501;-63
2022/01/22 07:45:41;;;;;;;1.00;0.70;;;20.30;44.30;;;;;;5079228;28;43474;-63
2022/01/22 07:48:15;;;;;;;0.95;0.57;;;20.40;44.40;;;;;;5062534;28;43495;-62
2022/01/22 07:51:02;;;;;;;1.55;0.68;;;20.40;44.40;;;;;;5080204;28;44616;-63
2022/01/22 07:53:30;;;;;;;1.52;0.70;;;20.40;44.30;;;;;;5063823;28;43494;-63
2022/01/22 07:56:01;;;;;;;2.38;0.95;;;20.40;44.40;;;;;;5063328;28;44254;-63
2022/01/22 07:58:29;;;;;;;1.85;0.90;;;20.40;44.40;;;;;;5046343;28;43472;-63
2022/01/22 08:00:57;;;;;;;1.55;0.63;;;20.40;44.40;;;;;;5063932;28;44034;-64
2022/01/22 08:03:27;;;;;;;1.15;0.65;;;20.40;44.40;;;;;;5063960;28;43431;-62
2022/01/22 08:06:15;;;;;;;1.50;0.67;;;20.40;44.40;;;;;;5021445;28;43510;-63
2022/01/22 08:09:01;;;;;;;1.20;0.55;;;20.40;44.30;;;;;;5081713;28;44038;-63
2022/01/22 08:11:47;;;;;;;0.82;0.52;;;20.40;44.40;;;;;;5081376;28;43652;-63
2022/01/22 08:14:16;;;;;;;1.52;0.90;;;20.40;44.40;;;;;;5064411;28;43479;-63
2022/01/22 08:16:46;;;;;;;0.50;0.50;;;20.40;44.30;;;;;;5067488;28;43660;-63
2022/01/22 08:19:15;;;;;;;0.88;0.60;;;20.50;44.40;;;;;;5068702;28;43383;-63
2022/01/22 08:21:44;;;;;;;1.27;0.68;;;20.40;44.30;;;;;;5055314;28;43819;-63
2022/01/22 08:24:31;;;;;;;1.08;0.60;;;20.50;44.40;;;;;;5080419;28;43968;-63
2022/01/22 08:27:15;;;;;;;1.20;0.80;;;20.50;44.40;;;;;;5083104;28;43450;-63
2022/01/22 08:29:44;;;;;;;1.70;0.75;;;20.50;44.30;;;;;;5067608;28;43650;-63
2022/01/22 08:37:42;;;;;;;0.90;0.50;;;20.50;44.60;;;;;;5066097;28;43549;-62
2022/01/22 08:40:11;;;;;;;1.33;0.60;;;20.60;44.20;;;;;;5068237;28;43495;-63
2022/01/22 08:42:39;;;;;;;0.63;0.55;;;20.60;44.30;;;;;;5047357;28;44048;-64
2022/01/22 08:45:07;;;;;;;0.75;0.50;;;20.60;44.30;;;;;;5065366;28;44024;-63
2022/01/22 08:47:35;;;;;;;1.45;0.70;;;20.60;44.20;;;;;;5066350;28;44059;-63
2022/01/22 08:50:04;;;;;;;0.65;0.57;;;20.60;44.20;;;;;;5066901;28;43590;-63
2022/01/22 08:52:35;;;;;;;1.80;0.70;;;20.60;44.30;;;;;;5066359;28;44682;-63
2022/01/22 08:55:06;;;;;;;1.38;0.63;;;20.70;44.30;;;;;;5064796;28;43313;-63
2022/01/22 08:57:37;;;;;;;1.23;0.77;;;20.70;44.30;;;;;;5067060;28;43622;-63
2022/01/22 09:00:11;;;;;;;1.13;0.70;;;20.70;44.30;;;;;;5066168;28;43468;-62
2022/01/22 09:02:49;;;;;;;0.57;0.57;;;20.70;44.30;;;;;;5065402;27;43894;-63
2022/01/22 09:05:31;;;;;;;1.33;0.80;;;20.70;44.30;;;;;;5063765;28;43567;-63
2022/01/22 09:08:20;;;;;;;0.70;0.52;;;20.70;44.20;;;;;;5066747;28;43497;-62
2022/01/22 09:11:18;;;;;;;1.13;0.77;;;20.70;44.20;;;;;;5065447;28;43518;-62
2022/01/22 09:14:09;;;;;;;0.82;0.52;;;20.80;44.30;;;;;;5068270;28;44035;-63
2022/01/22 09:16:44;;;;;;;1.20;0.70;;;20.80;44.30;;;;;;5066780;28;43474;-63
2022/01/22 09:19:13;;;;;;;1.05;0.57;;;20.80;44.30;;;;;;5083604;28;43443;-63
2022/01/22 09:21:45;;;;;;;1.15;0.55;;;20.80;44.20;;;;;;5060830;28;43868;-62
2022/01/22 09:24:15;;;;;;;;;;;20.80;44.30;;;;;;5069515;28;45446;-62
2022/01/22 09:26:45;;;;;;;0.70;0.60;;;20.80;44.30;;;;;;5066632;28;43871;-63
2022/01/22 09:29:15;;;;;;;1.55;0.70;;;20.80;44.40;;;;;;5063381;28;43515;-63
2022/01/22 09:31:44;;;;;;;1.17;0.80;;;20.80;44.30;;;;;;5065370;28;43619;-62
2022/01/22 09:34:20;;;;;;;0.70;0.60;;;20.80;44.30;;;;;;5047303;28;44179;-63
2022/01/22 09:37:17;;;;;;;1.65;0.70;;;20.90;44.30;;;;;;5064363;28;44011;-63
2022/01/22 09:40:07;;;;;;;2.13;0.80;;;20.90;44.40;;;;;;5083545;28;43502;-63
2022/01/22 09:42:53;;;;;;;2.40;0.65;;;20.90;44.30;;;;;;5080551;28;43549;-63
2022/01/22 09:45:35;;;;;;;1.73;0.82;;;20.90;44.30;;;;;;5067778;28;43823;-63
2022/01/22 09:48:29;;;;;;;1.23;0.70;;;20.90;44.30;;;;;;5076048;28;43960;-63
2022/01/22 09:51:19;;;;;;;1.55;0.82;;;21.00;44.40;;;;;;5070889;28;43486;-63
2022/01/22 09:54:11;;;;;;;2.20;1.00;;;21.00;44.40;;;;;;5068683;28;43552;-62
2022/01/22 09:57:06;;;;;;;1.90;0.80;;;21.00;44.40;;;;;;5064927;28;43877;-62
2022/01/22 09:59:53;;;;;;;1.77;0.80;;;21.00;44.40;;;;;;5080515;27;43979;-62
2022/01/22 10:02:49;;;;;;;3.22;1.38;;;21.00;44.40;;;;;;5083537;28;43518;-63
2022/01/22 10:05:42;;;;;;;2.20;1.20;;;21.00;44.30;;;;;;5063156;28;43533;-62
2022/01/22 10:08:31;;;;;;;2.75;1.13;;;21.00;44.40;;;;;;5081294;28;44033;-63
2022/01/22 10:11:34;;;;;;;3.35;0.98;;;21.10;44.40;;;;;;5058704;27;43526;-63
2022/01/22 10:14:19;;;;;;;2.05;1.17;;;21.10;44.30;;;;;;5077508;28;43452;-63
2022/01/22 10:16:48;;;;;;;2.10;1.10;;;21.10;44.50;;;;;;5074322;27;43407;-62
2022/01/22 10:19:16;;;;;;;2.15;1.10;;;21.10;44.40;;;;;;5083462;27;44935;-62
2022/01/22 10:21:57;;;;;;;3.13;1.40;;;21.10;44.30;;;;;;5078737;28;43446;-62
2022/01/22 10:24:43;;;;;;;;;;;21.10;44.30;;;;;;5077089;28;43466;-62
2022/01/22 10:27:27;;;;;;;2.28;1.00;;;21.10;44.30;;;;;;5082457;28;43465;-63
2022/01/22 10:30:06;;;;;;;2.25;1.30;;;21.20;44.50;;;;;;4149367;27;10000337;-63
2022/01/22 10:35:52;;;;;;;1.90;0.95;;;21.30;44.50;;;;;;5012560;28;43895;-63
2022/01/22 10:38:45;;;;;;;1.83;1.00;;;21.40;44.50;;;;;;5004623;28;43536;-62
2022/01/22 10:41:15;;;;;;;2.17;0.90;;;21.40;44.40;;;;;;5019917;28;43492;-62
2022/01/22 10:43:54;;;;;;;3.92;1.38;;;21.40;45.00;;;;;;5020660;28;43496;-62
2022/01/22 10:46:43;;;;;;;2.67;1.27;;;21.40;44.40;;;;;;5022178;28;45016;-62
2022/01/22 10:49:14;;;;;;;2.75;1.33;;;21.40;44.40;;;;;;5019585;28;43555;-63
2022/01/22 10:52:00;;;;;;;3.53;1.40;;;21.40;44.30;;;;;;5020897;28;43385;-63
2022/01/22 10:54:32;;;;;;;1.80;1.10;;;21.50;44.30;;;;;;5022133;28;43432;-62
2022/01/22 10:57:12;;;;;;;2.50;1.35;;;21.50;44.30;;;;;;5021165;28;44963;-63
2022/01/22 10:59:51;;;;;;;2.15;1.23;;;21.50;44.30;;;;;;5006231;28;43491;-63
2022/01/22 11:02:35;;;;;;;2.38;1.00;;;21.50;44.30;;;;;;5003066;28;43454;-62
2022/01/22 11:05:04;;;;;;;2.33;1.00;;;21.50;44.40;;;;;;5020995;28;43568;-62
2022/01/22 11:07:32;;;;;;;5.25;1.27;;;21.50;44.40;;;;;;5004552;28;43875;-63
2022/01/22 11:10:06;;;;;;;1.60;0.70;;;21.50;44.40;;;;;;5003486;28;43591;-63
2022/01/22 11:12:34;;;;;;;1.50;1.10;;;21.50;44.40;;;;;;5021636;28;43555;-62
2022/01/22 11:15:02;;;;;;;2.75;1.13;;;21.50;44.50;;;;;;5020324;28;43491;-62
2022/01/22 11:17:34;;;;;;;3.15;1.10;;;21.60;44.50;;;;;;5020354;28;43989;-62
2022/01/22 11:20:03;;;;;;;1.98;1.13;;;21.60;44.50;;;;;;5021162;28;43595;-62
2022/01/22 11:22:33;;;;;;;2.00;0.90;;;21.60;44.50;;;;;;5020146;28;43449;-63
2022/01/22 11:25:01;;;;;;;1.92;1.08;;;21.60;44.50;;;;;;5018754;28;43485;-62
2022/01/22 11:27:32;;;;;;;2.60;1.10;;;21.60;44.50;;;;;;5021137;28;44087;-63
2022/01/22 11:30:10;;;;;;;1.95;1.25;;;21.70;44.50;;;;;;5021532;28;43444;-62
2022/01/22 11:32:52;;;;;;;2.13;1.17;;;21.70;44.50;;;;;;5004029;28;43550;-63
2022/01/22 11:35:40;;;;;;;1.92;1.02;;;21.70;44.50;;;;;;5021217;28;43557;-62
2022/01/22 11:38:12;;;;;;;2.53;1.35;;;21.70;44.50;;;;;;5020918;28;44079;-62
2022/01/22 11:40:40;;;;;;;1.35;0.75;;;21.70;44.50;;;;;;4998083;28;43448;-63
2022/01/22 11:43:19;;;;;;;2.38;1.30;;;21.70;44.30;;;;;;5020905;28;43448;-62
2022/01/22 11:45:55;;;;;;;1.77;1.00;;;21.80;44.50;;;;;;5016942;28;43542;-62
2022/01/22 11:48:30;;;;;;;1.35;0.90;;;21.80;44.60;;;;;;5022757;28;44970;-63
2022/01/22 11:51:25;;;;;;;2.92;1.38;;;21.80;44.50;;;;;;5025159;28;43703;-62
2022/01/22 11:53:58;;;;;;;2.40;1.42;;;21.80;44.50;;;;;;5024393;28;43745;-63
2022/01/22 11:56:40;;;;;;;1.30;0.95;;;21.80;44.50;;;;;;5007558;28;43476;-63
2022/01/22 11:59:16;;;;;;;2.60;1.30;;;21.80;44.50;;;;;;5024477;28;43809;-63
2022/01/22 12:04:21;;;;;;;2.28;1.10;;;21.90;44.50;;;;;;5024888;28;43444;-62
2022/01/22 12:07:01;;;;;;;1.63;1.13;;;21.90;44.50;;;;;;5024729;28;43503;-62
2022/01/22 12:09:31;;;;;;;2.25;1.10;;;22.00;44.50;;;;;;5021275;28;43786;-62
2022/01/22 12:15:06;;;;;;;1.80;0.98;;;21.90;44.40;;;;;;5021855;28;44023;-62
2022/01/22 12:18:01;;;;;;;1.40;0.80;;;22.00;44.40;;;;;;5023816;28;43421;-63
2022/01/22 12:20:45;;;;;;;2.00;1.00;;;22.00;44.30;;;;;;5021905;28;44689;-63
2022/01/22 12:23:18;;;;;;;2.45;1.08;;;22.10;44.40;;;;;;5022469;28;43516;-63
2022/01/22 12:25:45;;;;;;;2.78;1.13;;;22.10;44.40;;;;;;5020322;28;43595;-62
2022/01/22 12:28:31;;;;;;;3.40;1.30;;;22.10;44.30;;;;;;5022908;28;43619;-63
2022/01/22 12:31:19;;;;;;;2.08;1.17;;;22.10;44.30;;;;;;5023307;28;43850;-62
2022/01/22 12:33:56;;;;;;;2.30;1.25;;;22.10;44.30;;;;;;5022086;28;43969;-63
2022/01/22 12:36:39;;;;;;;1.40;1.08;;;22.10;44.40;;;;;;5024225;28;43440;-64
2022/01/22 12:39:15;;;;;;;1.95;1.20;;;22.10;44.40;;;;;;5023776;28;43461;-63
2022/01/22 12:41:51;;;;;;;1.92;1.10;;;22.10;44.40;;;;;;5022238;28;43791;-62
2022/01/22 12:46:53;;;;;;;2.50;1.50;;;22.20;44.30;;;;;;5022246;28;43440;-62
2022/01/22 12:49:21;;;;;;;1.90;1.10;;;22.20;44.30;;;;;;5021934;28;43488;-62
2022/01/22 12:52:01;;;;;;;2.17;1.23;;;22.20;44.30;;;;;;5020961;28;43833;-63
2022/01/22 12:54:31;;;;;;;2.80;0.95;;;22.20;44.90;;;;;;5023397;28;43500;-62
2022/01/22 12:57:04;;;;;;;4.47;1.58;;;22.20;44.40;;;;;;5021769;28;43447;-62
2022/01/22 12:59:34;;;;;;;4.07;1.67;;;22.20;44.40;;;;;;5022718;28;43551;-62
2022/01/22 13:02:02;;;;;;;4.28;1.60;;;22.60;44.10;;;;;;5023956;28;43795;-64
2022/01/22 13:04:30;;;;;;;5.35;1.60;;;22.90;43.60;;;;;;5022387;28;44716;-63
2022/01/22 13:07:17;;;;;;;4.72;1.63;;;22.90;43.40;;;;;;5023696;28;43574;-63
2022/01/22 13:10:06;;;;;;;2.45;1.55;;;22.80;43.50;;;;;;5020978;28;43489;-62
2022/01/22 13:12:36;;;;;;;4.43;1.48;;;22.80;43.60;;;;;;5022648;28;44719;-63
2022/01/22 13:15:04;;;;;;;2.45;1.40;;;22.70;43.70;;;;;;5021836;28;43512;-64
2022/01/22 13:17:33;;;;;;;4.07;1.58;;;22.70;43.70;;;;;;5021643;28;43476;-63
2022/01/22 13:20:01;;;;;;;3.60;1.40;;;22.60;43.70;;;;;;5005492;28;43611;-63
2022/01/22 13:22:38;;;;;;;2.47;1.35;;;22.60;43.80;;;;;;5005457;28;45855;-63
2022/01/22 13:25:11;;;;;;;3.25;1.45;;;22.60;43.80;;;;;;5020825;28;43390;-63
2022/01/22 13:27:40;;;;;;;1.70;1.17;;;22.60;43.80;;;;;;5021385;28;43537;-63
2022/01/22 13:30:12;;;;;;;2.25;1.30;;;22.60;43.80;;;;;;5019044;28;43687;-63
2022/01/22 13:32:51;;;;;;;2.28;1.25;;;22.60;43.80;;;;;;5022044;28;43858;-63
2022/01/22 13:49:25;;;;;;;2.13;1.45;;;22.60;44.00;;;;;;5022985;28;43437;-62
2022/01/22 13:52:02;;;;;;;1.95;1.30;;;22.60;44.00;;;;;;5020499;28;43531;-63
2022/01/22 13:54:32;;;;;;;2.78;1.50;;;22.60;44.00;;;;;;5021723;28;45006;-63
2022/01/22 13:57:09;;;;;;;2.57;1.43;;;22.60;44.00;;;;;;5018748;28;43542;-62
2022/01/22 13:59:45;;;;;;;2.38;1.45;;;22.60;43.90;;;;;;5007847;28;43447;-64
2022/01/22 14:05:08;;;;;;;1.58;1.30;;;22.60;44.00;;;;;;5022398;28;44010;-63
2022/01/22 14:07:48;;;;;;;3.17;1.20;;;22.60;44.00;;;;;;5016523;28;43445;-63
2022/01/22 14:10:18;;;;;;;1.92;1.25;;;22.70;44.00;;;;;;5021786;28;43485;-63
2022/01/22 14:12:50;;;;;;;3.05;1.80;;;22.60;43.90;;;;;;5022068;28;43529;-62
2022/01/22 14:15:27;;;;;;;2.15;1.30;;;22.60;43.90;;;;;;5020054;28;44023;-63
2022/01/22 14:18:19;;;;;;;1.75;1.38;;;22.60;43.90;;;;;;5020160;28;44496;-62
2022/01/22 14:21:06;;;;;;;2.40;1.10;;;22.60;43.90;;;;;;5020533;28;43517;-62
2022/01/22 14:23:39;;;;;;;2.65;1.33;;;22.60;43.90;;;;;;5022456;28;43453;-63
2022/01/22 14:26:28;;;;;;;2.42;1.30;;;22.60;43.90;;;;;;5018648;28;43805;-62
2022/01/22 14:28:58;;;;;;;2.40;1.20;;;22.70;43.90;;;;;;5018540;28;43458;-63
2022/01/22 14:31:34;;;;;;;1.50;1.00;;;22.70;43.90;;;;;;5005657;28;43493;-62
2022/01/22 14:34:11;;;;;;;3.05;1.40;;;22.70;43.90;;;;;;5019677;28;43560;-62
2022/01/22 14:36:41;;;;;;;4.60;1.45;;;22.70;43.80;;;;;;5020403;28;43879;-62
2022/01/22 14:44:57;;;;;;;2.88;1.10;;;22.70;44.00;;;;;;5020515;28;44020;-64
2022/01/22 14:47:27;;;;;;;3.17;1.33;;;22.70;44.00;;;;;;5020248;28;43814;-63
2022/01/22 14:50:01;;;;;;;2.55;1.15;;;22.70;44.00;;;;;;5021112;28;43456;-63
2022/01/22 14:52:29;;;;;;;2.92;1.33;;;22.70;43.90;;;;;;5021341;28;43433;-63
2022/01/22 14:54:59;;;;;;;3.50;1.30;;;22.70;44.00;;;;;;5021316;28;43645;-64
2022/01/22 14:57:35;;;;;;;2.67;1.35;;;22.70;44.00;;;;;;5004034;28;44145;-63
2022/01/22 15:00:07;;;;;;;3.58;1.42;;;22.70;44.00;;;;;;5021159;28;43501;-62
2022/01/22 15:02:36;;;;;;;1.88;1.25;;;22.80;44.00;;;;;;5022227;28;44033;-62
2022/01/22 15:05:11;;;;;;;2.78;1.20;;;22.80;44.00;;;;;;5005811;28;43610;-62
2022/01/22 15:07:40;;;;;;;1.33;0.95;;;22.80;44.00;;;;;;5019395;28;43971;-62
2022/01/22 15:10:09;;;;;;;3.40;1.05;;;22.80;44.10;;;;;;5020890;28;43558;-63
2022/01/22 15:12:38;;;;;;;2.22;1.23;;;22.80;44.00;;;;;;5022062;28;43561;-63
2022/01/22 15:15:31;;;;;;;2.20;1.27;;;22.80;44.00;;;;;;5005381;28;43496;-62
2022/01/22 15:18:08;;;;;;;2.78;0.95;;;22.80;44.10;;;;;;5015959;28;43569;-63
2022/01/22 15:20:36;;;;;;;1.92;1.15;;;22.90;44.10;;;;;;5021376;28;43393;-63
2022/01/22 15:23:03;;;;;;;2.22;1.17;;;22.90;44.00;;;;;;5020258;28;43544;-63
2022/01/22 15:25:31;;;;;;;2.10;1.15;;;22.90;43.90;;;;;;5021448;28;43506;-63
2022/01/22 15:27:58;;;;;;;2.05;1.15;;;22.90;43.90;;;;;;5002778;28;43694;-63
2022/01/22 15:30:33;;;;;;;1.95;1.05;;;22.90;43.90;;;;;;5020699;28;43487;-62
2022/01/22 15:33:17;;;;;;;3.22;1.35;;;22.90;43.90;;;;;;5003653;28;43378;-62
2022/01/22 15:35:45;;;;;;;1.98;1.20;;;22.80;44.50;;;;;;5017546;28;43408;-62
2022/01/22 15:38:12;;;;;;;2.40;1.05;;;22.90;43.90;;;;;;5020528;28;43885;-63
2022/01/22 15:40:41;;;;;;;2.20;1.10;;;22.80;44.00;;;;;;5016783;28;44055;-63
2022/01/22 15:43:09;;;;;;;1.88;1.08;;;22.90;44.00;;;;;;5019966;28;43397;-63
2022/01/22 15:45:37;;;;;;;2.58;1.00;;;22.90;44.00;;;;;;5017664;28;43572;-63
2022/01/22 15:48:05;;;;;;;2.25;1.20;;;22.90;44.00;;;;;;5017705;28;43798;-62
2022/01/22 15:50:34;;;;;;;2.50;1.10;;;22.90;44.00;;;;;;5006231;28;43843;-63